sensor_id;sensor_type;location;lat;lon;timestamp;pressure;altitude;pressure_sealevel;temperature;humidity
24390;BME280;12510;56.468;-3.004;2023-09-19T00:00:22;53142.44;;;-148.32;100.00
24390;BME280;12510;56.468;-3.004;2023-09-19T00:02:54;53142.44;;;-148.32;100.00
24390;BME280;12510;56.468;-3.004;2023-09-19T00:05:21;53218.09;;;-148.32;100.00
24390;BME280;12510;56.468;-3.004;2023-09-19T00:07:51;53198.19;;;-148.32;100.00
24390;BME280;12510;56.468;-3.004;2023-09-19T00:10:24;53164.34;;;-148.32;100.00
24390;BME280;12510;56.468;-3.004;2023-09-19T00:12:55;53222.09;;;-148.32;100.00
24390;BME280;12510;56.468;-3.004;2023-09-19T00:15:22;53192.22;;;-148.32;100.00
24390;BME280;12510;56.468;-3.004;2023-09-19T00:17:49;53178.28;;;-148.32;100.00
24390;BME280;12510;56.468;-3.004;2023-09-19T00:20:18;53146.41;;;-148.32;100.00
24390;BME280;12510;56.468;-3.004;2023-09-19T00:22:44;53126.50;;;-148.32;100.00
24390;BME280;12510;56.468;-3.004;2023-09-19T00:25:11;53156.38;;;-148.32;100.00
24390;BME280;12510;56.468;-3.004;2023-09-19T00:27:38;53144.41;;;-148.32;100.00
24390;BME280;12510;56.468;-3.004;2023-09-19T00:30:09;53102.59;;;-148.32;100.00
24390;BME280;12510;56.468;-3.004;2023-09-19T00:32:46;53007.03;;;-148.32;100.00
24390;BME280;12510;56.468;-3.004;2023-09-19T00:35:15;52909.47;;;-148.32;100.00
24390;BME280;12510;56.468;-3.004;2023-09-19T00:37:42;52815.88;;;-148.32;100.00
24390;BME280;12510;56.468;-3.004;2023-09-19T00:40:10;53042.88;;;-148.32;100.00
24390;BME280;12510;56.468;-3.004;2023-09-19T00:42:42;53020.97;;;-148.32;100.00
24390;BME280;12510;56.468;-3.004;2023-09-19T00:45:10;53078.72;;;-148.32;100.00
24390;BME280;12510;56.468;-3.004;2023-09-19T00:47:44;53142.44;;;-148.32;100.00
24390;BME280;12510;56.468;-3.004;2023-09-19T00:50:13;53158.38;;;-148.32;100.00
24390;BME280;12510;56.468;-3.004;2023-09-19T00:52:42;53184.25;;;-148.32;100.00
24390;BME280;12510;56.468;-3.004;2023-09-19T00:55:09;53074.72;;;-148.32;100.00
24390;BME280;12510;56.468;-3.004;2023-09-19T00:57:37;53126.50;;;-148.32;100.00
24390;BME280;12510;56.468;-3.004;2023-09-19T01:00:07;53152.38;;;-148.32;100.00
24390;BME280;12510;56.468;-3.004;2023-09-19T01:02:35;53078.72;;;-148.32;100.00
24390;BME280;12510;56.468;-3.004;2023-09-19T01:05:01;53082.69;;;-148.32;100.00
24390;BME280;12510;56.468;-3.004;2023-09-19T01:07:31;53132.47;;;-148.32;100.00
24390;BME280;12510;56.468;-3.004;2023-09-19T01:10:03;53152.38;;;-148.32;100.00
24390;BME280;12510;56.468;-3.004;2023-09-19T01:17:48;53126.50;;;-148.32;100.00
24390;BME280;12510;56.468;-3.004;2023-09-19T01:23:20;53092.66;;;-148.32;100.00
24390;BME280;12510;56.468;-3.004;2023-09-19T01:26:05;53082.69;;;-148.32;100.00
24390;BME280;12510;56.468;-3.004;2023-09-19T01:31:40;53094.63;;;-148.32;100.00
24390;BME280;12510;56.468;-3.004;2023-09-19T01:34:08;53007.03;;;-148.32;100.00
24390;BME280;12510;56.468;-3.004;2023-09-19T01:36:36;53013.00;;;-148.32;100.00
24390;BME280;12510;56.468;-3.004;2023-09-19T01:39:10;53038.88;;;-148.32;100.00
24390;BME280;12510;56.468;-3.004;2023-09-19T01:42:12;52967.19;;;-148.32;100.00
24390;BME280;12510;56.468;-3.004;2023-09-19T01:44:59;53024.94;;;-148.32;100.00
24390;BME280;12510;56.468;-3.004;2023-09-19T01:47:37;53011.00;;;-148.32;100.00
24390;BME280;12510;56.468;-3.004;2023-09-19T01:50:21;53009.03;;;-148.32;100.00
24390;BME280;12510;56.468;-3.004;2023-09-19T01:53:23;53122.53;;;-148.32;100.00
24390;BME280;12510;56.468;-3.004;2023-09-19T01:55:52;53090.66;;;-148.32;100.00
24390;BME280;12510;56.468;-3.004;2023-09-19T01:58:42;53082.69;;;-148.32;100.00
24390;BME280;12510;56.468;-3.004;2023-09-19T02:01:14;53036.91;;;-148.32;100.00
24390;BME280;12510;56.468;-3.004;2023-09-19T02:03:43;53116.53;;;-148.32;100.00
24390;BME280;12510;56.468;-3.004;2023-09-19T02:06:17;53092.66;;;-148.32;100.00
24390;BME280;12510;56.468;-3.004;2023-09-19T02:08:45;53094.63;;;-148.32;100.00
24390;BME280;12510;56.468;-3.004;2023-09-19T02:11:13;53134.47;;;-148.32;100.00
24390;BME280;12510;56.468;-3.004;2023-09-19T02:13:40;53062.78;;;-148.32;100.00
24390;BME280;12510;56.468;-3.004;2023-09-19T02:16:07;53158.38;;;-148.32;100.00
24390;BME280;12510;56.468;-3.004;2023-09-19T02:18:35;53070.75;;;-148.32;100.00
24390;BME280;12510;56.468;-3.004;2023-09-19T02:21:03;53058.81;;;-148.32;100.00
24390;BME280;12510;56.468;-3.004;2023-09-19T02:23:38;53118.53;;;-148.32;100.00
24390;BME280;12510;56.468;-3.004;2023-09-19T02:26:05;53122.53;;;-148.32;100.00
24390;BME280;12510;56.468;-3.004;2023-09-19T02:28:32;53158.38;;;-148.32;100.00
24390;BME280;12510;56.468;-3.004;2023-09-19T02:30:59;53218.09;;;-148.32;100.00
24390;BME280;12510;56.468;-3.004;2023-09-19T02:33:25;53222.09;;;-148.32;100.00
24390;BME280;12510;56.468;-3.004;2023-09-19T02:35:56;53126.50;;;-148.32;100.00
24390;BME280;12510;56.468;-3.004;2023-09-19T02:38:27;53070.75;;;-148.32;100.00
24390;BME280;12510;56.468;-3.004;2023-09-19T02:40:55;53042.88;;;-148.32;100.00
24390;BME280;12510;56.468;-3.004;2023-09-19T02:43:23;53122.53;;;-148.32;100.00
24390;BME280;12510;56.468;-3.004;2023-09-19T02:45:50;53150.41;;;-148.32;100.00
24390;BME280;12510;56.468;-3.004;2023-09-19T02:48:17;53098.63;;;-148.32;100.00
24390;BME280;12510;56.468;-3.004;2023-09-19T02:50:44;52975.16;;;-148.32;100.00
24390;BME280;12510;56.468;-3.004;2023-09-19T02:53:11;53026.94;;;-148.32;100.00
24390;BME280;12510;56.468;-3.004;2023-09-19T02:55:39;52873.63;;;-148.32;100.00
24390;BME280;12510;56.468;-3.004;2023-09-19T02:58:07;52921.41;;;-148.32;100.00
24390;BME280;12510;56.468;-3.004;2023-09-19T03:00:41;52883.56;;;-148.32;100.00
24390;BME280;12510;56.468;-3.004;2023-09-19T03:03:09;52911.44;;;-148.32;100.00
24390;BME280;12510;56.468;-3.004;2023-09-19T03:05:35;52899.50;;;-148.32;100.00
24390;BME280;12510;56.468;-3.004;2023-09-19T03:08:04;52829.81;;;-148.32;100.00
24390;BME280;12510;56.468;-3.004;2023-09-19T03:10:31;52967.19;;;-148.32;100.00
24390;BME280;12510;56.468;-3.004;2023-09-19T03:12:58;52975.16;;;-148.32;100.00
24390;BME280;12510;56.468;-3.004;2023-09-19T03:15:28;52943.31;;;-148.32;100.00
24390;BME280;12510;56.468;-3.004;2023-09-19T03:17:54;52897.50;;;-148.32;100.00
24390;BME280;12510;56.468;-3.004;2023-09-19T03:20:23;52971.19;;;-148.32;100.00
24390;BME280;12510;56.468;-3.004;2023-09-19T03:22:51;53015.00;;;-148.32;100.00
24390;BME280;12510;56.468;-3.004;2023-09-19T03:25:18;53138.44;;;-148.32;100.00
24390;BME280;12510;56.468;-3.004;2023-09-19T03:27:48;53013.00;;;-148.32;100.00
24390;BME280;12510;56.468;-3.004;2023-09-19T03:30:15;53086.69;;;-148.32;100.00
24390;BME280;12510;56.468;-3.004;2023-09-19T03:32:49;52911.44;;;-148.32;100.00
24390;BME280;12510;56.468;-3.004;2023-09-19T03:35:17;53003.03;;;-148.32;100.00
24390;BME280;12510;56.468;-3.004;2023-09-19T03:37:45;52963.22;;;-148.32;100.00
24390;BME280;12510;56.468;-3.004;2023-09-19T03:40:12;53003.03;;;-148.32;100.00
24390;BME280;12510;56.468;-3.004;2023-09-19T03:42:40;53052.81;;;-148.32;100.00
24390;BME280;12510;56.468;-3.004;2023-09-19T03:45:09;53048.84;;;-148.32;100.00
24390;BME280;12510;56.468;-3.004;2023-09-19T03:47:41;53046.84;;;-148.32;100.00
24390;BME280;12510;56.468;-3.004;2023-09-19T03:50:09;53140.44;;;-148.32;100.00
24390;BME280;12510;56.468;-3.004;2023-09-19T03:52:41;53196.19;;;-148.32;100.00
24390;BME280;12510;56.468;-3.004;2023-09-19T03:55:08;53178.28;;;-148.32;100.00
24390;BME280;12510;56.468;-3.004;2023-09-19T03:57:37;53170.31;;;-148.32;100.00
24390;BME280;12510;56.468;-3.004;2023-09-19T04:00:04;53196.19;;;-148.32;100.00
24390;BME280;12510;56.468;-3.004;2023-09-19T04:02:40;53242.00;;;-148.32;100.00
24390;BME280;12510;56.468;-3.004;2023-09-19T04:05:07;53271.88;;;-148.32;100.00
24390;BME280;12510;56.468;-3.004;2023-09-19T04:07:35;53305.72;;;-148.32;100.00
24390;BME280;12510;56.468;-3.004;2023-09-19T04:10:01;53267.88;;;-148.32;100.00
24390;BME280;12510;56.468;-3.004;2023-09-19T04:12:30;53309.69;;;-148.32;100.00
24390;BME280;12510;56.468;-3.004;2023-09-19T04:14:57;53244.00;;;-148.32;100.00
24390;BME280;12510;56.468;-3.004;2023-09-19T04:17:23;53309.69;;;-148.32;100.00
24390;BME280;12510;56.468;-3.004;2023-09-19T04:19:50;53305.72;;;-148.32;100.00
24390;BME280;12510;56.468;-3.004;2023-09-19T04:22:16;53257.94;;;-148.32;100.00
24390;BME280;12510;56.468;-3.004;2023-09-19T04:24:43;53275.84;;;-148.32;100.00
24390;BME280;12510;56.468;-3.004;2023-09-19T04:27:10;53273.84;;;-148.32;100.00
24390;BME280;12510;56.468;-3.004;2023-09-19T04:29:38;53317.66;;;-148.32;100.00
24390;BME280;12510;56.468;-3.004;2023-09-19T04:32:05;53269.88;;;-148.32;100.00
24390;BME280;12510;56.468;-3.004;2023-09-19T04:34:32;53291.78;;;-148.32;100.00
24390;BME280;12510;56.468;-3.004;2023-09-19T04:36:58;53263.91;;;-148.32;100.00
24390;BME280;12510;56.468;-3.004;2023-09-19T04:39:27;53216.09;;;-148.32;100.00
24390;BME280;12510;56.468;-3.004;2023-09-19T04:41:53;53271.88;;;-148.32;100.00
24390;BME280;12510;56.468;-3.004;2023-09-19T04:44:20;53333.59;;;-148.32;100.00
24390;BME280;12510;56.468;-3.004;2023-09-19T04:46:47;53261.91;;;-148.32;100.00
24390;BME280;12510;56.468;-3.004;2023-09-19T04:49:13;53297.75;;;-148.32;100.00
24390;BME280;12510;56.468;-3.004;2023-09-19T04:51:40;53363.47;;;-148.32;100.00
24390;BME280;12510;56.468;-3.004;2023-09-19T04:54:06;53349.53;;;-148.32;100.00
24390;BME280;12510;56.468;-3.004;2023-09-19T04:56:33;53337.59;;;-148.32;100.00
24390;BME280;12510;56.468;-3.004;2023-09-19T04:59:00;53377.41;;;-148.32;100.00
24390;BME280;12510;56.468;-3.004;2023-09-19T05:01:26;53385.38;;;-148.32;100.00
24390;BME280;12510;56.468;-3.004;2023-09-19T05:03:53;53387.38;;;-148.32;100.00
24390;BME280;12510;56.468;-3.004;2023-09-19T05:06:20;53325.63;;;-148.32;100.00
24390;BME280;12510;56.468;-3.004;2023-09-19T05:08:48;53337.59;;;-148.32;100.00
24390;BME280;12510;56.468;-3.004;2023-09-19T05:11:19;53351.53;;;-148.32;100.00
24390;BME280;12510;56.468;-3.004;2023-09-19T05:13:49;53393.34;;;-148.32;100.00
24390;BME280;12510;56.468;-3.004;2023-09-19T05:16:19;53377.41;;;-148.32;100.00
24390;BME280;12510;56.468;-3.004;2023-09-19T05:18:45;53395.34;;;-148.32;100.00
24390;BME280;12510;56.468;-3.004;2023-09-19T05:21:11;53383.38;;;-148.32;100.00
24390;BME280;12510;56.468;-3.004;2023-09-19T05:23:39;53377.41;;;-148.32;100.00
24390;BME280;12510;56.468;-3.004;2023-09-19T05:26:05;53349.53;;;-148.32;100.00
24390;BME280;12510;56.468;-3.004;2023-09-19T05:28:32;53393.34;;;-148.32;100.00
24390;BME280;12510;56.468;-3.004;2023-09-19T05:31:01;53377.41;;;-148.32;100.00
24390;BME280;12510;56.468;-3.004;2023-09-19T05:33:30;53357.50;;;-148.32;100.00
24390;BME280;12510;56.468;-3.004;2023-09-19T05:35:58;53391.34;;;-148.32;100.00
24390;BME280;12510;56.468;-3.004;2023-09-19T05:38:24;53377.41;;;-148.32;100.00
24390;BME280;12510;56.468;-3.004;2023-09-19T05:40:52;53381.41;;;-148.32;100.00
24390;BME280;12510;56.468;-3.004;2023-09-19T05:43:19;53407.28;;;-148.32;100.00
24390;BME280;12510;56.468;-3.004;2023-09-19T05:45:45;53385.38;;;-148.32;100.00
24390;BME280;12510;56.468;-3.004;2023-09-19T05:48:13;53401.31;;;-148.32;100.00
24390;BME280;12510;56.468;-3.004;2023-09-19T05:50:42;53389.34;;;-148.32;100.00
24390;BME280;12510;56.468;-3.004;2023-09-19T05:53:09;53393.34;;;-148.32;100.00
24390;BME280;12510;56.468;-3.004;2023-09-19T05:55:39;53393.34;;;-148.32;100.00
24390;BME280;12510;56.468;-3.004;2023-09-19T05:58:06;53369.44;;;-148.32;100.00
24390;BME280;12510;56.468;-3.004;2023-09-19T06:00:33;53363.47;;;-148.32;100.00
24390;BME280;12510;56.468;-3.004;2023-09-19T06:02:59;53373.44;;;-148.32;100.00
24390;BME280;12510;56.468;-3.004;2023-09-19T06:05:27;53369.44;;;-148.32;100.00
24390;BME280;12510;56.468;-3.004;2023-09-19T06:07:54;53291.78;;;-148.32;100.00
24390;BME280;12510;56.468;-3.004;2023-09-19T06:10:20;53273.84;;;-148.32;100.00
24390;BME280;12510;56.468;-3.004;2023-09-19T06:12:48;53323.66;;;-148.32;100.00
24390;BME280;12510;56.468;-3.004;2023-09-19T06:15:16;53303.72;;;-148.32;100.00
24390;BME280;12510;56.468;-3.004;2023-09-19T06:17:49;53317.66;;;-148.32;100.00
24390;BME280;12510;56.468;-3.004;2023-09-19T06:20:16;53244.00;;;-148.32;100.00
24390;BME280;12510;56.468;-3.004;2023-09-19T06:22:46;53212.13;;;-148.32;100.00
24390;BME280;12510;56.468;-3.004;2023-09-19T06:25:13;53295.75;;;-148.32;100.00
24390;BME280;12510;56.468;-3.004;2023-09-19T06:27:53;53277.84;;;-148.32;100.00
24390;BME280;12510;56.468;-3.004;2023-09-19T06:30:24;53311.69;;;-148.32;100.00
24390;BME280;12510;56.468;-3.004;2023-09-19T06:32:57;53303.72;;;-148.32;100.00
24390;BME280;12510;56.468;-3.004;2023-09-19T06:35:23;53323.66;;;-148.32;100.00
24390;BME280;12510;56.468;-3.004;2023-09-19T06:37:52;53245.97;;;-148.32;100.00
24390;BME280;12510;56.468;-3.004;2023-09-19T06:40:19;53285.81;;;-148.32;100.00
24390;BME280;12510;56.468;-3.004;2023-09-19T06:42:51;53202.16;;;-148.32;100.00
24390;BME280;12510;56.468;-3.004;2023-09-19T06:45:19;53273.84;;;-148.32;100.00
24390;BME280;12510;56.468;-3.004;2023-09-19T06:47:46;53146.41;;;-148.32;100.00
24390;BME280;12510;56.468;-3.004;2023-09-19T06:50:20;53251.94;;;-148.32;100.00
24390;BME280;12510;56.468;-3.004;2023-09-19T06:52:50;53198.19;;;-148.32;100.00
24390;BME280;12510;56.468;-3.004;2023-09-19T06:55:21;53156.38;;;-148.32;100.00
24390;BME280;12510;56.468;-3.004;2023-09-19T06:57:51;53138.44;;;-148.32;100.00
24390;BME280;12510;56.468;-3.004;2023-09-19T07:00:17;53206.16;;;-148.32;100.00
24390;BME280;12510;56.468;-3.004;2023-09-19T07:02:57;53084.69;;;-148.32;100.00
24390;BME280;12510;56.468;-3.004;2023-09-19T07:05:25;53164.34;;;-148.32;100.00
24390;BME280;12510;56.468;-3.004;2023-09-19T07:07:51;53118.53;;;-148.32;100.00
24390;BME280;12510;56.468;-3.004;2023-09-19T07:10:18;53126.50;;;-148.32;100.00
24390;BME280;12510;56.468;-3.004;2023-09-19T07:12:46;53166.31;;;-148.32;100.00
24390;BME280;12510;56.468;-3.004;2023-09-19T07:15:13;53096.63;;;-148.32;100.00
24390;BME280;12510;56.468;-3.004;2023-09-19T07:17:39;53200.19;;;-148.32;100.00
24390;BME280;12510;56.468;-3.004;2023-09-19T07:20:06;53186.25;;;-148.32;100.00
24390;BME280;12510;56.468;-3.004;2023-09-19T07:22:36;53030.91;;;-148.32;100.00
24390;BME280;12510;56.468;-3.004;2023-09-19T07:25:05;53044.84;;;-148.32;100.00
24390;BME280;12510;56.468;-3.004;2023-09-19T07:27:31;53094.63;;;-148.32;100.00
24390;BME280;12510;56.468;-3.004;2023-09-19T07:29:58;53154.38;;;-148.32;100.00
24390;BME280;12510;56.468;-3.004;2023-09-19T07:32:25;53082.69;;;-148.32;100.00
24390;BME280;12510;56.468;-3.004;2023-09-19T07:34:51;52983.13;;;-148.32;100.00
24390;BME280;12510;56.468;-3.004;2023-09-19T07:37:18;53120.53;;;-148.32;100.00
24390;BME280;12510;56.468;-3.004;2023-09-19T07:39:44;53138.44;;;-148.32;100.00
24390;BME280;12510;56.468;-3.004;2023-09-19T07:42:11;53176.28;;;-148.32;100.00
24390;BME280;12510;56.468;-3.004;2023-09-19T07:44:44;53082.69;;;-148.32;100.00
24390;BME280;12510;56.468;-3.004;2023-09-19T07:47:14;53001.06;;;-148.32;100.00
24390;BME280;12510;56.468;-3.004;2023-09-19T07:49:49;53144.41;;;-148.32;100.00
24390;BME280;12510;56.468;-3.004;2023-09-19T07:52:15;53068.75;;;-148.32;100.00
24390;BME280;12510;56.468;-3.004;2023-09-19T07:54:51;53064.78;;;-148.32;100.00
24390;BME280;12510;56.468;-3.004;2023-09-19T07:57:18;53001.06;;;-148.32;100.00
24390;BME280;12510;56.468;-3.004;2023-09-19T07:59:46;52935.34;;;-148.32;100.00
24390;BME280;12510;56.468;-3.004;2023-09-19T08:02:12;53052.81;;;-148.32;100.00
24390;BME280;12510;56.468;-3.004;2023-09-19T08:04:42;53134.47;;;-148.32;100.00
24390;BME280;12510;56.468;-3.004;2023-09-19T08:07:09;53110.56;;;-148.32;100.00
24390;BME280;12510;56.468;-3.004;2023-09-19T08:09:37;52981.13;;;-148.32;100.00
24390;BME280;12510;56.468;-3.004;2023-09-19T08:12:05;53032.91;;;-148.32;100.00
24390;BME280;12510;56.468;-3.004;2023-09-19T08:14:34;52979.16;;;-148.32;100.00
24390;BME280;12510;56.468;-3.004;2023-09-19T08:17:00;53022.97;;;-148.32;100.00
24390;BME280;12510;56.468;-3.004;2023-09-19T08:19:27;53054.81;;;-148.32;100.00
24390;BME280;12510;56.468;-3.004;2023-09-19T08:21:55;53134.47;;;-148.32;100.00
24390;BME280;12510;56.468;-3.004;2023-09-19T08:24:28;53098.63;;;-148.32;100.00
24390;BME280;12510;56.468;-3.004;2023-09-19T08:26:56;53138.44;;;-148.32;100.00
24390;BME280;12510;56.468;-3.004;2023-09-19T08:29:25;52995.06;;;-148.32;100.00
24390;BME280;12510;56.468;-3.004;2023-09-19T08:31:57;53108.59;;;-148.32;100.00
24390;BME280;12510;56.468;-3.004;2023-09-19T08:34:24;53005.03;;;-148.32;100.00
24390;BME280;12510;56.468;-3.004;2023-09-19T08:36:52;53144.41;;;-148.32;100.00
24390;BME280;12510;56.468;-3.004;2023-09-19T08:39:25;53130.47;;;-148.32;100.00
24390;BME280;12510;56.468;-3.004;2023-09-19T08:41:58;53208.16;;;-148.32;100.00
24390;BME280;12510;56.468;-3.004;2023-09-19T08:44:26;53196.19;;;-148.32;100.00
24390;BME280;12510;56.468;-3.004;2023-09-19T08:47:15;53249.97;;;-148.32;100.00
24390;BME280;12510;56.468;-3.004;2023-09-19T08:52:32;53247.97;;;-148.32;100.00
24390;BME280;12510;56.468;-3.004;2023-09-19T08:55:02;53317.66;;;-148.32;100.00
24390;BME280;12510;56.468;-3.004;2023-09-19T08:57:41;53244.00;;;-148.32;100.00
24390;BME280;12510;56.468;-3.004;2023-09-19T09:00:10;53210.13;;;-148.32;100.00
24390;BME280;12510;56.468;-3.004;2023-09-19T09:02:38;53220.09;;;-148.32;100.00
24390;BME280;12510;56.468;-3.004;2023-09-19T09:05:17;53253.94;;;-148.32;100.00
24390;BME280;12510;56.468;-3.004;2023-09-19T09:07:49;53377.41;;;-148.32;100.00
24390;BME280;12510;56.468;-3.004;2023-09-19T09:10:21;53257.94;;;-148.32;100.00
24390;BME280;12510;56.468;-3.004;2023-09-19T09:12:51;53321.66;;;-148.32;100.00
24390;BME280;12510;56.468;-3.004;2023-09-19T09:15:22;53397.31;;;-148.32;100.00
24390;BME280;12510;56.468;-3.004;2023-09-19T09:17:52;53238.00;;;-148.32;100.00
24390;BME280;12510;56.468;-3.004;2023-09-19T09:20:22;53377.41;;;-148.32;100.00
24390;BME280;12510;56.468;-3.004;2023-09-19T09:22:55;53323.66;;;-148.32;100.00
24390;BME280;12510;56.468;-3.004;2023-09-19T09:25:53;53309.69;;;-148.32;100.00
24390;BME280;12510;56.468;-3.004;2023-09-19T09:28:27;53347.53;;;-148.32;100.00
24390;BME280;12510;56.468;-3.004;2023-09-19T09:30:55;53277.84;;;-148.32;100.00
24390;BME280;12510;56.468;-3.004;2023-09-19T09:33:22;53297.75;;;-148.32;100.00
24390;BME280;12510;56.468;-3.004;2023-09-19T09:35:56;53279.84;;;-148.32;100.00
24390;BME280;12510;56.468;-3.004;2023-09-19T09:38:24;53377.41;;;-148.32;100.00
24390;BME280;12510;56.468;-3.004;2023-09-19T09:40:55;53387.38;;;-148.32;100.00
24390;BME280;12510;56.468;-3.004;2023-09-19T09:43:34;53457.06;;;-148.32;100.00
24390;BME280;12510;56.468;-3.004;2023-09-19T09:49:01;53425.22;;;-148.32;100.00
24390;BME280;12510;56.468;-3.004;2023-09-19T09:52:05;53425.22;;;-148.32;100.00
24390;BME280;12510;56.468;-3.004;2023-09-19T09:55:04;53359.50;;;-148.32;100.00
24390;BME280;12510;56.468;-3.004;2023-09-19T09:57:34;53357.50;;;-148.32;100.00
24390;BME280;12510;56.468;-3.004;2023-09-19T10:00:02;53379.41;;;-148.32;100.00
24390;BME280;12510;56.468;-3.004;2023-09-19T10:02:39;53459.06;;;-148.32;100.00
24390;BME280;12510;56.468;-3.004;2023-09-19T10:05:13;53484.94;;;-148.32;100.00
24390;BME280;12510;56.468;-3.004;2023-09-19T10:07:50;53453.09;;;-148.32;100.00
24390;BME280;12510;56.468;-3.004;2023-09-19T10:10:31;53395.34;;;-148.32;100.00
24390;BME280;12510;56.468;-3.004;2023-09-19T10:13:06;53457.06;;;-148.32;100.00
24390;BME280;12510;56.468;-3.004;2023-09-19T10:15:35;53445.13;;;-148.32;100.00
24390;BME280;12510;56.468;-3.004;2023-09-19T10:18:05;53512.81;;;-148.32;100.00
24390;BME280;12510;56.468;-3.004;2023-09-19T10:20:36;53498.88;;;-148.32;100.00
24390;BME280;12510;56.468;-3.004;2023-09-19T10:23:09;53514.81;;;-148.32;100.00
24390;BME280;12510;56.468;-3.004;2023-09-19T10:25:42;53534.72;;;-148.32;100.00
24390;BME280;12510;56.468;-3.004;2023-09-19T10:28:11;53514.81;;;-148.32;100.00
24390;BME280;12510;56.468;-3.004;2023-09-19T10:30:41;53548.69;;;-148.32;100.00
24390;BME280;12510;56.468;-3.004;2023-09-19T10:33:12;53520.78;;;-148.32;100.00
24390;BME280;12510;56.468;-3.004;2023-09-19T10:35:42;53520.78;;;-148.32;100.00
24390;BME280;12510;56.468;-3.004;2023-09-19T10:38:18;53528.75;;;-148.32;100.00
24390;BME280;12510;56.468;-3.004;2023-09-19T10:40:53;53530.75;;;-148.32;100.00
24390;BME280;12510;56.468;-3.004;2023-09-19T10:43:30;53504.88;;;-148.32;100.00
24390;BME280;12510;56.468;-3.004;2023-09-19T10:46:07;53496.91;;;-148.32;100.00
24390;BME280;12510;56.468;-3.004;2023-09-19T10:48:37;53488.94;;;-148.32;100.00
24390;BME280;12510;56.468;-3.004;2023-09-19T10:51:19;53508.84;;;-148.32;100.00
24390;BME280;12510;56.468;-3.004;2023-09-19T10:54:08;53496.91;;;-148.32;100.00
24390;BME280;12510;56.468;-3.004;2023-09-19T10:56:44;53482.97;;;-148.32;100.00
24390;BME280;12510;56.468;-3.004;2023-09-19T10:59:20;53478.97;;;-148.32;100.00
24390;BME280;12510;56.468;-3.004;2023-09-19T11:01:55;53506.84;;;-148.32;100.00
24390;BME280;12510;56.468;-3.004;2023-09-19T11:07:07;53469.00;;;-148.32;100.00
24390;BME280;12510;56.468;-3.004;2023-09-19T11:09:56;53488.94;;;-148.32;100.00
24390;BME280;12510;56.468;-3.004;2023-09-19T11:14:58;53488.94;;;-148.32;100.00
24390;BME280;12510;56.468;-3.004;2023-09-19T11:17:43;53484.94;;;-148.32;100.00
24390;BME280;12510;56.468;-3.004;2023-09-19T11:30:37;53475.00;;;-148.32;100.00
24390;BME280;12510;56.468;-3.004;2023-09-19T11:33:23;53469.00;;;-148.32;100.00
24390;BME280;12510;56.468;-3.004;2023-09-19T11:46:31;53490.91;;;-148.32;100.00
24390;BME280;12510;56.468;-3.004;2023-09-19T11:49:06;53496.91;;;-148.32;100.00
24390;BME280;12510;56.468;-3.004;2023-09-19T11:51:40;53473.00;;;-148.32;100.00
24390;BME280;12510;56.468;-3.004;2023-09-19T11:54:11;53496.91;;;-148.32;100.00
24390;BME280;12510;56.468;-3.004;2023-09-19T11:56:52;53500.88;;;-148.32;100.00
24390;BME280;12510;56.468;-3.004;2023-09-19T11:59:21;53488.94;;;-148.32;100.00
24390;BME280;12510;56.468;-3.004;2023-09-19T12:01:52;53473.00;;;-148.32;100.00
24390;BME280;12510;56.468;-3.004;2023-09-19T12:04:38;53475.00;;;-148.32;100.00
24390;BME280;12510;56.468;-3.004;2023-09-19T12:07:12;53496.91;;;-148.32;100.00
24390;BME280;12510;56.468;-3.004;2023-09-19T12:09:47;53508.84;;;-148.32;100.00
24390;BME280;12510;56.468;-3.004;2023-09-19T12:12:24;53504.88;;;-148.32;100.00
24390;BME280;12510;56.468;-3.004;2023-09-19T12:14:54;53528.75;;;-148.32;100.00
24390;BME280;12510;56.468;-3.004;2023-09-19T12:17:57;53514.81;;;-148.32;100.00
24390;BME280;12510;56.468;-3.004;2023-09-19T12:20:17;53453.09;;;-148.32;100.00
24390;BME280;12510;56.468;-3.004;2023-09-19T12:22:50;53498.88;;;-148.32;100.00
24390;BME280;12510;56.468;-3.004;2023-09-19T12:25:16;53512.81;;;-148.32;100.00
24390;BME280;12510;56.468;-3.004;2023-09-19T12:27:48;53494.91;;;-148.32;100.00
24390;BME280;12510;56.468;-3.004;2023-09-19T12:30:28;53498.88;;;-148.32;100.00
24390;BME280;12510;56.468;-3.004;2023-09-19T12:32:55;53478.97;;;-148.32;100.00
24390;BME280;12510;56.468;-3.004;2023-09-19T12:35:29;53480.97;;;-148.32;100.00
24390;BME280;12510;56.468;-3.004;2023-09-19T12:37:56;53512.81;;;-148.32;100.00
24390;BME280;12510;56.468;-3.004;2023-09-19T12:40:24;53484.94;;;-148.32;100.00
24390;BME280;12510;56.468;-3.004;2023-09-19T12:42:54;53484.94;;;-148.32;100.00
24390;BME280;12510;56.468;-3.004;2023-09-19T12:45:22;53512.81;;;-148.32;100.00
24390;BME280;12510;56.468;-3.004;2023-09-19T12:51:09;53512.81;;;-148.32;100.00
24390;BME280;12510;56.468;-3.004;2023-09-19T12:53:57;53502.88;;;-148.32;100.00
24390;BME280;12510;56.468;-3.004;2023-09-19T12:56:24;53500.88;;;-148.32;100.00
24390;BME280;12510;56.468;-3.004;2023-09-19T12:58:58;53484.94;;;-148.32;100.00
24390;BME280;12510;56.468;-3.004;2023-09-19T13:01:27;53467.03;;;-148.32;100.00
24390;BME280;12510;56.468;-3.004;2023-09-19T13:04:15;53500.88;;;-148.32;100.00
24390;BME280;12510;56.468;-3.004;2023-09-19T13:06:46;53506.84;;;-148.32;100.00
24390;BME280;12510;56.468;-3.004;2023-09-19T13:09:21;53510.84;;;-148.32;100.00
24390;BME280;12510;56.468;-3.004;2023-09-19T13:11:49;53502.88;;;-148.32;100.00
24390;BME280;12510;56.468;-3.004;2023-09-19T13:14:29;53500.88;;;-148.32;100.00
24390;BME280;12510;56.468;-3.004;2023-09-19T13:17:05;53520.78;;;-148.32;100.00
24390;BME280;12510;56.468;-3.004;2023-09-19T13:19:46;53506.84;;;-148.32;100.00
24390;BME280;12510;56.468;-3.004;2023-09-19T13:25:02;53498.88;;;-148.32;100.00
24390;BME280;12510;56.468;-3.004;2023-09-19T13:27:30;53478.97;;;-148.32;100.00